sensor_id;sensor_type;location;lat;lon;timestamp;P1;durP1;ratioP1;P2;durP2;ratioP2
6145;SDS011;3104;50.348;7.620;2023-04-22T00:00:50;6.07;;;5.57;;
6145;SDS011;3104;50.348;7.620;2023-04-22T00:03:15;6.80;;;5.60;;
6145;SDS011;3104;50.348;7.620;2023-04-22T00:05:41;6.00;;;5.50;;
6145;SDS011;3104;50.348;7.620;2023-04-22T00:08:08;5.40;;;4.90;;
6145;SDS011;3104;50.348;7.620;2023-04-22T00:10:34;5.67;;;5.27;;
6145;SDS011;3104;50.348;7.620;2023-04-22T00:12:59;6.10;;;5.60;;
6145;SDS011;3104;50.348;7.620;2023-04-22T00:15:25;5.70;;;5.17;;
6145;SDS011;3104;50.348;7.620;2023-04-22T00:17:51;6.70;;;5.70;;
6145;SDS011;3104;50.348;7.620;2023-04-22T00:20:18;5.50;;;5.00;;
6145;SDS011;3104;50.348;7.620;2023-04-22T00:22:45;6.43;;;5.87;;
6145;SDS011;3104;50.348;7.620;2023-04-22T00:25:11;7.23;;;5.70;;
6145;SDS011;3104;50.348;7.620;2023-04-22T00:27:37;6.13;;;5.60;;
6145;SDS011;3104;50.348;7.620;2023-04-22T00:30:03;6.20;;;5.70;;
6145;SDS011;3104;50.348;7.620;2023-04-22T00:32:29;5.30;;;4.90;;
6145;SDS011;3104;50.348;7.620;2023-04-22T00:34:55;6.47;;;5.53;;
6145;SDS011;3104;50.348;7.620;2023-04-22T00:37:21;5.53;;;5.03;;
6145;SDS011;3104;50.348;7.620;2023-04-22T00:39:48;5.20;;;4.40;;
6145;SDS011;3104;50.348;7.620;2023-04-22T00:42:13;6.00;;;5.50;;
6145;SDS011;3104;50.348;7.620;2023-04-22T00:44:40;5.83;;;5.33;;
6145;SDS011;3104;50.348;7.620;2023-04-22T00:47:07;5.90;;;5.27;;
6145;SDS011;3104;50.348;7.620;2023-04-22T00:49:33;7.63;;;5.70;;
6145;SDS011;3104;50.348;7.620;2023-04-22T00:52:00;6.57;;;5.97;;
6145;SDS011;3104;50.348;7.620;2023-04-22T00:54:26;6.60;;;6.00;;
6145;SDS011;3104;50.348;7.620;2023-04-22T00:56:52;6.87;;;6.30;;
6145;SDS011;3104;50.348;7.620;2023-04-22T00:59:19;7.03;;;6.27;;
6145;SDS011;3104;50.348;7.620;2023-04-22T01:01:45;6.20;;;5.60;;
6145;SDS011;3104;50.348;7.620;2023-04-22T01:04:11;6.87;;;6.27;;
6145;SDS011;3104;50.348;7.620;2023-04-22T01:06:38;6.23;;;5.73;;
6145;SDS011;3104;50.348;7.620;2023-04-22T01:09:05;6.43;;;5.93;;
6145;SDS011;3104;50.348;7.620;2023-04-22T01:11:31;6.50;;;5.80;;
6145;SDS011;3104;50.348;7.620;2023-04-22T01:13:58;8.10;;;6.27;;
6145;SDS011;3104;50.348;7.620;2023-04-22T01:16:24;6.77;;;6.17;;
6145;SDS011;3104;50.348;7.620;2023-04-22T01:18:53;7.57;;;6.50;;
6145;SDS011;3104;50.348;7.620;2023-04-22T01:21:18;7.07;;;6.47;;
6145;SDS011;3104;50.348;7.620;2023-04-22T01:23:44;7.93;;;7.13;;
6145;SDS011;3104;50.348;7.620;2023-04-22T01:26:10;5.80;;;5.27;;
6145;SDS011;3104;50.348;7.620;2023-04-22T01:28:36;6.43;;;5.80;;
6145;SDS011;3104;50.348;7.620;2023-04-22T01:31:02;6.60;;;6.00;;
6145;SDS011;3104;50.348;7.620;2023-04-22T01:33:28;7.33;;;6.17;;
6145;SDS011;3104;50.348;7.620;2023-04-22T01:35:54;6.83;;;6.13;;
6145;SDS011;3104;50.348;7.620;2023-04-22T01:38:20;6.73;;;6.03;;
6145;SDS011;3104;50.348;7.620;2023-04-22T01:40:45;6.13;;;5.60;;
6145;SDS011;3104;50.348;7.620;2023-04-22T01:43:11;6.80;;;6.10;;
6145;SDS011;3104;50.348;7.620;2023-04-22T01:45:36;7.13;;;5.90;;
6145;SDS011;3104;50.348;7.620;2023-04-22T01:48:02;6.70;;;6.10;;
6145;SDS011;3104;50.348;7.620;2023-04-22T01:50:28;6.93;;;6.30;;
6145;SDS011;3104;50.348;7.620;2023-04-22T01:52:54;7.40;;;6.40;;
6145;SDS011;3104;50.348;7.620;2023-04-22T01:55:21;5.80;;;5.30;;
6145;SDS011;3104;50.348;7.620;2023-04-22T01:57:46;6.43;;;5.90;;
6145;SDS011;3104;50.348;7.620;2023-04-22T02:00:12;8.60;;;6.70;;
6145;SDS011;3104;50.348;7.620;2023-04-22T02:02:38;5.97;;;5.47;;
6145;SDS011;3104;50.348;7.620;2023-04-22T02:05:04;6.30;;;5.80;;
6145;SDS011;3104;50.348;7.620;2023-04-22T02:07:31;5.87;;;5.10;;
6145;SDS011;3104;50.348;7.620;2023-04-22T02:09:56;5.93;;;5.47;;
6145;SDS011;3104;50.348;7.620;2023-04-22T02:12:22;5.70;;;5.17;;
6145;SDS011;3104;50.348;7.620;2023-04-22T02:14:47;6.60;;;5.67;;
6145;SDS011;3104;50.348;7.620;2023-04-22T02:17:13;5.77;;;5.20;;
6145;SDS011;3104;50.348;7.620;2023-04-22T02:19:41;5.23;;;4.70;;
6145;SDS011;3104;50.348;7.620;2023-04-22T02:22:07;5.93;;;5.43;;
6145;SDS011;3104;50.348;7.620;2023-04-22T02:24:33;5.83;;;5.33;;
6145;SDS011;3104;50.348;7.620;2023-04-22T02:26:59;5.27;;;4.83;;
6145;SDS011;3104;50.348;7.620;2023-04-22T02:29:25;6.23;;;4.93;;
6145;SDS011;3104;50.348;7.620;2023-04-22T02:31:51;4.33;;;3.80;;
6145;SDS011;3104;50.348;7.620;2023-04-22T02:34:16;5.57;;;5.07;;
6145;SDS011;3104;50.348;7.620;2023-04-22T02:36:42;5.50;;;4.20;;
6145;SDS011;3104;50.348;7.620;2023-04-22T02:39:08;4.67;;;4.27;;
6145;SDS011;3104;50.348;7.620;2023-04-22T02:41:33;4.40;;;4.00;;
6145;SDS011;3104;50.348;7.620;2023-04-22T02:43:59;5.60;;;3.93;;
6145;SDS011;3104;50.348;7.620;2023-04-22T02:46:24;4.70;;;4.30;;
6145;SDS011;3104;50.348;7.620;2023-04-22T02:48:50;6.07;;;3.83;;
6145;SDS011;3104;50.348;7.620;2023-04-22T02:51:16;4.20;;;3.90;;
6145;SDS011;3104;50.348;7.620;2023-04-22T02:53:41;4.20;;;3.90;;
6145;SDS011;3104;50.348;7.620;2023-04-22T02:56:07;4.17;;;3.77;;
6145;SDS011;3104;50.348;7.620;2023-04-22T02:58:33;3.50;;;3.23;;
6145;SDS011;3104;50.348;7.620;2023-04-22T03:00:58;4.20;;;3.90;;
6145;SDS011;3104;50.348;7.620;2023-04-22T03:03:24;3.97;;;3.67;;
6145;SDS011;3104;50.348;7.620;2023-04-22T03:05:50;4.20;;;3.80;;
6145;SDS011;3104;50.348;7.620;2023-04-22T03:08:16;3.60;;;3.30;;
6145;SDS011;3104;50.348;7.620;2023-04-22T03:10:41;5.23;;;3.40;;
6145;SDS011;3104;50.348;7.620;2023-04-22T03:13:07;3.70;;;3.30;;
6145;SDS011;3104;50.348;7.620;2023-04-22T03:15:32;3.90;;;3.60;;
6145;SDS011;3104;50.348;7.620;2023-04-22T03:17:58;8.50;;;3.50;;
6145;SDS011;3104;50.348;7.620;2023-04-22T03:20:24;4.80;;;4.40;;
6145;SDS011;3104;50.348;7.620;2023-04-22T03:22:49;3.47;;;3.17;;
6145;SDS011;3104;50.348;7.620;2023-04-22T03:25:15;4.50;;;4.03;;
6145;SDS011;3104;50.348;7.620;2023-04-22T03:27:40;3.50;;;3.20;;
6145;SDS011;3104;50.348;7.620;2023-04-22T03:30:06;4.27;;;3.90;;
6145;SDS011;3104;50.348;7.620;2023-04-22T03:32:32;3.53;;;3.23;;
6145;SDS011;3104;50.348;7.620;2023-04-22T03:34:57;3.80;;;3.50;;
6145;SDS011;3104;50.348;7.620;2023-04-22T03:37:23;4.17;;;3.40;;
6145;SDS011;3104;50.348;7.620;2023-04-22T03:39:49;3.13;;;2.93;;
6145;SDS011;3104;50.348;7.620;2023-04-22T03:42:14;4.60;;;3.90;;
6145;SDS011;3104;50.348;7.620;2023-04-22T03:44:40;4.00;;;3.20;;
6145;SDS011;3104;50.348;7.620;2023-04-22T03:47:06;3.07;;;2.87;;
6145;SDS011;3104;50.348;7.620;2023-04-22T03:49:31;3.80;;;3.50;;
6145;SDS011;3104;50.348;7.620;2023-04-22T03:51:57;3.13;;;2.83;;
6145;SDS011;3104;50.348;7.620;2023-04-22T03:54:23;3.40;;;3.10;;
6145;SDS011;3104;50.348;7.620;2023-04-22T03:56:49;3.27;;;3.03;;
6145;SDS011;3104;50.348;7.620;2023-04-22T03:59:16;3.27;;;3.07;;
6145;SDS011;3104;50.348;7.620;2023-04-22T04:01:42;3.67;;;3.40;;
6145;SDS011;3104;50.348;7.620;2023-04-22T04:04:09;3.40;;;3.20;;
6145;SDS011;3104;50.348;7.620;2023-04-22T04:06:35;3.50;;;3.30;;
6145;SDS011;3104;50.348;7.620;2023-04-22T04:09:00;3.90;;;3.60;;
6145;SDS011;3104;50.348;7.620;2023-04-22T04:11:27;4.77;;;4.40;;
6145;SDS011;3104;50.348;7.620;2023-04-22T04:13:53;4.70;;;4.17;;
6145;SDS011;3104;50.348;7.620;2023-04-22T04:16:18;4.17;;;3.77;;
6145;SDS011;3104;50.348;7.620;2023-04-22T04:18:44;6.30;;;3.50;;
6145;SDS011;3104;50.348;7.620;2023-04-22T04:21:09;5.03;;;3.27;;
6145;SDS011;3104;50.348;7.620;2023-04-22T04:23:35;3.43;;;3.13;;
6145;SDS011;3104;50.348;7.620;2023-04-22T04:26:01;3.03;;;2.83;;
6145;SDS011;3104;50.348;7.620;2023-04-22T04:28:29;3.50;;;3.20;;
6145;SDS011;3104;50.348;7.620;2023-04-22T04:30:57;4.37;;;3.97;;
6145;SDS011;3104;50.348;7.620;2023-04-22T04:33:23;2.93;;;2.73;;
6145;SDS011;3104;50.348;7.620;2023-04-22T04:35:49;3.60;;;3.30;;
6145;SDS011;3104;50.348;7.620;2023-04-22T04:38:16;4.13;;;3.73;;
6145;SDS011;3104;50.348;7.620;2023-04-22T04:40:42;4.03;;;3.63;;
6145;SDS011;3104;50.348;7.620;2023-04-22T04:43:09;4.40;;;3.60;;
6145;SDS011;3104;50.348;7.620;2023-04-22T04:45:36;4.27;;;3.90;;
6145;SDS011;3104;50.348;7.620;2023-04-22T04:48:03;6.93;;;3.33;;
6145;SDS011;3104;50.348;7.620;2023-04-22T04:50:31;5.50;;;3.83;;
6145;SDS011;3104;50.348;7.620;2023-04-22T04:52:56;3.60;;;3.30;;
6145;SDS011;3104;50.348;7.620;2023-04-22T04:55:22;4.00;;;3.70;;
6145;SDS011;3104;50.348;7.620;2023-04-22T04:57:48;4.60;;;3.43;;
6145;SDS011;3104;50.348;7.620;2023-04-22T05:00:13;3.73;;;3.27;;
6145;SDS011;3104;50.348;7.620;2023-04-22T05:02:39;3.70;;;3.40;;
6145;SDS011;3104;50.348;7.620;2023-04-22T05:05:05;4.80;;;3.80;;
6145;SDS011;3104;50.348;7.620;2023-04-22T05:07:32;3.70;;;3.33;;
6145;SDS011;3104;50.348;7.620;2023-04-22T05:09:58;3.23;;;2.93;;
6145;SDS011;3104;50.348;7.620;2023-04-22T05:12:24;3.60;;;3.30;;
6145;SDS011;3104;50.348;7.620;2023-04-22T05:14:50;3.90;;;3.60;;
6145;SDS011;3104;50.348;7.620;2023-04-22T05:17:16;3.10;;;2.83;;
6145;SDS011;3104;50.348;7.620;2023-04-22T05:19:41;3.40;;;3.10;;
6145;SDS011;3104;50.348;7.620;2023-04-22T05:22:07;3.13;;;2.93;;
6145;SDS011;3104;50.348;7.620;2023-04-22T05:24:32;3.17;;;2.97;;
6145;SDS011;3104;50.348;7.620;2023-04-22T05:26:58;2.60;;;2.37;;
6145;SDS011;3104;50.348;7.620;2023-04-22T05:29:24;3.73;;;2.83;;
6145;SDS011;3104;50.348;7.620;2023-04-22T05:31:51;3.80;;;2.97;;
6145;SDS011;3104;50.348;7.620;2023-04-22T05:34:16;2.80;;;2.50;;
6145;SDS011;3104;50.348;7.620;2023-04-22T05:36:42;3.60;;;3.30;;
6145;SDS011;3104;50.348;7.620;2023-04-22T05:39:07;3.73;;;3.23;;
6145;SDS011;3104;50.348;7.620;2023-04-22T05:41:33;3.80;;;3.50;;
6145;SDS011;3104;50.348;7.620;2023-04-22T05:43:59;2.77;;;2.57;;
6145;SDS011;3104;50.348;7.620;2023-04-22T05:46:24;3.60;;;3.30;;
6145;SDS011;3104;50.348;7.620;2023-04-22T05:48:50;2.80;;;2.60;;
6145;SDS011;3104;50.348;7.620;2023-04-22T05:51:15;2.97;;;2.77;;
6145;SDS011;3104;50.348;7.620;2023-04-22T05:53:41;3.67;;;3.37;;
6145;SDS011;3104;50.348;7.620;2023-04-22T05:56:07;3.07;;;2.87;;
6145;SDS011;3104;50.348;7.620;2023-04-22T05:58:32;4.83;;;4.53;;
6145;SDS011;3104;50.348;7.620;2023-04-22T06:00:59;3.57;;;2.97;;
6145;SDS011;3104;50.348;7.620;2023-04-22T06:03:24;3.17;;;2.97;;
6145;SDS011;3104;50.348;7.620;2023-04-22T06:05:50;2.73;;;2.53;;
6145;SDS011;3104;50.348;7.620;2023-04-22T06:08:16;3.40;;;3.10;;
6145;SDS011;3104;50.348;7.620;2023-04-22T06:10:43;3.70;;;3.30;;
6145;SDS011;3104;50.348;7.620;2023-04-22T06:13:09;5.47;;;3.33;;
6145;SDS011;3104;50.348;7.620;2023-04-22T06:15:34;3.43;;;3.13;;
6145;SDS011;3104;50.348;7.620;2023-04-22T06:18:00;3.40;;;3.10;;
6145;SDS011;3104;50.348;7.620;2023-04-22T06:20:26;3.20;;;2.90;;
6145;SDS011;3104;50.348;7.620;2023-04-22T06:22:51;3.30;;;3.10;;
6145;SDS011;3104;50.348;7.620;2023-04-22T06:25:17;3.53;;;3.33;;
6145;SDS011;3104;50.348;7.620;2023-04-22T06:27:42;3.43;;;3.10;;
6145;SDS011;3104;50.348;7.620;2023-04-22T06:30:08;2.83;;;2.63;;
6145;SDS011;3104;50.348;7.620;2023-04-22T06:32:35;3.23;;;3.00;;
6145;SDS011;3104;50.348;7.620;2023-04-22T06:35:01;3.47;;;3.17;;
6145;SDS011;3104;50.348;7.620;2023-04-22T06:37:27;3.10;;;2.60;;
6145;SDS011;3104;50.348;7.620;2023-04-22T06:39:53;4.60;;;2.83;;
6145;SDS011;3104;50.348;7.620;2023-04-22T06:42:18;4.13;;;2.90;;
6145;SDS011;3104;50.348;7.620;2023-04-22T06:44:44;3.67;;;3.33;;
6145;SDS011;3104;50.348;7.620;2023-04-22T06:47:09;3.63;;;3.43;;
6145;SDS011;3104;50.348;7.620;2023-04-22T06:49:35;3.80;;;3.50;;
6145;SDS011;3104;50.348;7.620;2023-04-22T06:52:02;3.67;;;2.83;;
6145;SDS011;3104;50.348;7.620;2023-04-22T06:54:28;2.90;;;2.70;;
6145;SDS011;3104;50.348;7.620;2023-04-22T06:56:54;2.70;;;2.50;;
6145;SDS011;3104;50.348;7.620;2023-04-22T06:59:19;3.20;;;2.70;;
6145;SDS011;3104;50.348;7.620;2023-04-22T07:01:45;2.93;;;2.73;;
6145;SDS011;3104;50.348;7.620;2023-04-22T07:04:10;2.47;;;2.27;;
6145;SDS011;3104;50.348;7.620;2023-04-22T07:06:36;2.40;;;2.30;;
6145;SDS011;3104;50.348;7.620;2023-04-22T07:09:01;3.20;;;2.90;;
6145;SDS011;3104;50.348;7.620;2023-04-22T07:11:27;2.73;;;2.53;;
6145;SDS011;3104;50.348;7.620;2023-04-22T07:13:55;2.93;;;2.73;;
6145;SDS011;3104;50.348;7.620;2023-04-22T07:16:21;2.60;;;2.40;;
6145;SDS011;3104;50.348;7.620;2023-04-22T07:18:46;2.73;;;2.53;;
6145;SDS011;3104;50.348;7.620;2023-04-22T07:21:12;2.67;;;2.47;;
6145;SDS011;3104;50.348;7.620;2023-04-22T07:23:38;3.03;;;2.73;;
6145;SDS011;3104;50.348;7.620;2023-04-22T07:26:03;3.30;;;3.00;;
6145;SDS011;3104;50.348;7.620;2023-04-22T07:28:29;2.90;;;2.70;;
6145;SDS011;3104;50.348;7.620;2023-04-22T07:30:55;2.60;;;2.23;;
6145;SDS011;3104;50.348;7.620;2023-04-22T07:33:20;3.77;;;2.57;;
6145;SDS011;3104;50.348;7.620;2023-04-22T07:35:46;2.70;;;2.00;;
6145;SDS011;3104;50.348;7.620;2023-04-22T07:38:12;3.30;;;3.00;;
6145;SDS011;3104;50.348;7.620;2023-04-22T07:40:38;2.73;;;2.53;;
6145;SDS011;3104;50.348;7.620;2023-04-22T07:43:03;3.00;;;2.80;;
6145;SDS011;3104;50.348;7.620;2023-04-22T07:45:30;2.00;;;1.90;;
6145;SDS011;3104;50.348;7.620;2023-04-22T07:47:56;2.60;;;2.40;;
6145;SDS011;3104;50.348;7.620;2023-04-22T07:50:21;4.40;;;2.47;;
6145;SDS011;3104;50.348;7.620;2023-04-22T07:52:47;2.50;;;2.40;;
6145;SDS011;3104;50.348;7.620;2023-04-22T07:55:12;3.83;;;2.53;;
6145;SDS011;3104;50.348;7.620;2023-04-22T07:57:38;2.33;;;2.13;;
6145;SDS011;3104;50.348;7.620;2023-04-22T08:00:07;2.57;;;2.20;;
6145;SDS011;3104;50.348;7.620;2023-04-22T08:02:34;2.23;;;2.13;;
6145;SDS011;3104;50.348;7.620;2023-04-22T08:04:59;2.30;;;2.10;;
6145;SDS011;3104;50.348;7.620;2023-04-22T08:07:25;2.27;;;2.17;;
6145;SDS011;3104;50.348;7.620;2023-04-22T08:09:51;3.43;;;2.37;;
6145;SDS011;3104;50.348;7.620;2023-04-22T08:12:16;2.80;;;2.60;;
6145;SDS011;3104;50.348;7.620;2023-04-22T08:14:42;2.57;;;2.13;;
6145;SDS011;3104;50.348;7.620;2023-04-22T08:17:08;2.63;;;2.53;;
6145;SDS011;3104;50.348;7.620;2023-04-22T08:19:33;2.57;;;2.37;;
6145;SDS011;3104;50.348;7.620;2023-04-22T08:21:59;2.50;;;2.30;;
6145;SDS011;3104;50.348;7.620;2023-04-22T08:24:25;2.53;;;2.43;;
6145;SDS011;3104;50.348;7.620;2023-04-22T08:26:51;4.40;;;2.30;;
6145;SDS011;3104;50.348;7.620;2023-04-22T08:29:16;3.47;;;2.30;;
6145;SDS011;3104;50.348;7.620;2023-04-22T08:31:42;2.03;;;1.90;;
6145;SDS011;3104;50.348;7.620;2023-04-22T08:34:07;2.47;;;2.27;;
6145;SDS011;3104;50.348;7.620;2023-04-22T08:36:33;2.60;;;2.40;;
6145;SDS011;3104;50.348;7.620;2023-04-22T08:38:59;3.33;;;2.30;;
6145;SDS011;3104;50.348;7.620;2023-04-22T08:41:25;3.73;;;2.40;;
6145;SDS011;3104;50.348;7.620;2023-04-22T08:43:53;2.47;;;2.23;;
6145;SDS011;3104;50.348;7.620;2023-04-22T08:46:20;2.63;;;2.43;;
6145;SDS011;3104;50.348;7.620;2023-04-22T08:48:47;2.10;;;2.00;;
6145;SDS011;3104;50.348;7.620;2023-04-22T08:51:14;2.40;;;2.20;;
6145;SDS011;3104;50.348;7.620;2023-04-22T08:53:44;2.63;;;2.43;;
6145;SDS011;3104;50.348;7.620;2023-04-22T08:56:13;2.40;;;2.30;;
6145;SDS011;3104;50.348;7.620;2023-04-22T08:58:40;3.40;;;2.17;;
6145;SDS011;3104;50.348;7.620;2023-04-22T09:01:06;2.43;;;2.23;;
6145;SDS011;3104;50.348;7.620;2023-04-22T09:03:33;2.50;;;1.90;;
6145;SDS011;3104;50.348;7.620;2023-04-22T09:06:02;2.40;;;2.30;;
6145;SDS011;3104;50.348;7.620;2023-04-22T09:08:28;1.90;;;1.80;;
6145;SDS011;3104;50.348;7.620;2023-04-22T09:10:54;2.70;;;2.50;;
6145;SDS011;3104;50.348;7.620;2023-04-22T09:13:19;2.10;;;2.00;;
6145;SDS011;3104;50.348;7.620;2023-04-22T09:15:46;2.27;;;2.17;;
6145;SDS011;3104;50.348;7.620;2023-04-22T09:18:15;1.93;;;1.83;;
6145;SDS011;3104;50.348;7.620;2023-04-22T09:20:42;2.47;;;2.27;;
6145;SDS011;3104;50.348;7.620;2023-04-22T09:23:08;3.33;;;2.27;;
6145;SDS011;3104;50.348;7.620;2023-04-22T09:25:36;3.90;;;3.60;;
6145;SDS011;3104;50.348;7.620;2023-04-22T09:28:02;2.47;;;2.17;;
6145;SDS011;3104;50.348;7.620;2023-04-22T09:30:29;3.17;;;2.20;;
6145;SDS011;3104;50.348;7.620;2023-04-22T09:32:57;2.00;;;1.90;;
6145;SDS011;3104;50.348;7.620;2023-04-22T09:35:34;2.10;;;1.90;;
6145;SDS011;3104;50.348;7.620;2023-04-22T09:38:05;2.03;;;1.93;;
6145;SDS011;3104;50.348;7.620;2023-04-22T09:40:32;2.37;;;2.00;;
6145;SDS011;3104;50.348;7.620;2023-04-22T09:43:00;2.33;;;2.17;;
6145;SDS011;3104;50.348;7.620;2023-04-22T09:45:28;2.73;;;2.30;;
6145;SDS011;3104;50.348;7.620;2023-04-22T09:47:54;2.43;;;2.23;;
6145;SDS011;3104;50.348;7.620;2023-04-22T09:50:23;5.50;;;2.13;;
6145;SDS011;3104;50.348;7.620;2023-04-22T09:52:53;2.47;;;2.37;;
6145;SDS011;3104;50.348;7.620;2023-04-22T09:55:20;2.10;;;2.00;;
6145;SDS011;3104;50.348;7.620;2023-04-22T09:57:49;2.57;;;2.37;;
6145;SDS011;3104;50.348;7.620;2023-04-22T10:00:17;4.80;;;1.80;;
6145;SDS011;3104;50.348;7.620;2023-04-22T10:02:42;3.60;;;2.00;;
6145;SDS011;3104;50.348;7.620;2023-04-22T10:05:08;3.10;;;2.90;;
6145;SDS011;3104;50.348;7.620;2023-04-22T10:07:36;2.10;;;1.97;;
6145;SDS011;3104;50.348;7.620;2023-04-22T10:10:03;2.27;;;2.07;;
6145;SDS011;3104;50.348;7.620;2023-04-22T10:12:33;3.37;;;3.00;;
6145;SDS011;3104;50.348;7.620;2023-04-22T10:15:00;3.03;;;1.90;;
6145;SDS011;3104;50.348;7.620;2023-04-22T10:17:27;2.30;;;1.80;;
6145;SDS011;3104;50.348;7.620;2023-04-22T10:19:55;2.50;;;2.03;;
6145;SDS011;3104;50.348;7.620;2023-04-22T10:22:23;2.90;;;2.70;;
6145;SDS011;3104;50.348;7.620;2023-04-22T10:24:49;2.37;;;2.17;;
6145;SDS011;3104;50.348;7.620;2023-04-22T10:27:22;2.20;;;2.00;;
6145;SDS011;3104;50.348;7.620;2023-04-22T10:29:48;3.30;;;2.13;;
6145;SDS011;3104;50.348;7.620;2023-04-22T10:34:43;2.00;;;1.87;;
6145;SDS011;3104;50.348;7.620;2023-04-22T10:37:12;3.63;;;2.07;;
6145;SDS011;3104;50.348;7.620;2023-04-22T10:39:39;2.50;;;2.30;;
6145;SDS011;3104;50.348;7.620;2023-04-22T10:42:10;2.43;;;2.23;;
6145;SDS011;3104;50.348;7.620;2023-04-22T10:47:28;2.40;;;2.30;;
6145;SDS011;3104;50.348;7.620;2023-04-22T10:50:15;2.70;;;2.30;;
6145;SDS011;3104;50.348;7.620;2023-04-22T10:52:41;3.23;;;2.57;;
6145;SDS011;3104;50.348;7.620;2023-04-22T10:55:08;2.57;;;2.37;;
6145;SDS011;3104;50.348;7.620;2023-04-22T10:57:37;2.87;;;2.67;;
6145;SDS011;3104;50.348;7.620;2023-04-22T11:00:39;3.70;;;2.80;;
6145;SDS011;3104;50.348;7.620;2023-04-22T11:05:30;2.60;;;2.40;;
6145;SDS011;3104;50.348;7.620;2023-04-22T11:08:07;2.70;;;2.50;;
6145;SDS011;3104;50.348;7.620;2023-04-22T11:10:44;3.03;;;2.83;;
6145;SDS011;3104;50.348;7.620;2023-04-22T11:13:13;2.83;;;2.47;;
6145;SDS011;3104;50.348;7.620;2023-04-22T11:15:40;2.60;;;2.40;;
6145;SDS011;3104;50.348;7.620;2023-04-22T11:18:08;2.50;;;2.30;;
6145;SDS011;3104;50.348;7.620;2023-04-22T11:20:37;2.20;;;2.10;;
6145;SDS011;3104;50.348;7.620;2023-04-22T11:23:02;2.57;;;2.30;;
6145;SDS011;3104;50.348;7.620;2023-04-22T11:25:28;2.30;;;2.10;;
6145;SDS011;3104;50.348;7.620;2023-04-22T11:27:55;2.23;;;2.03;;
6145;SDS011;3104;50.348;7.620;2023-04-22T11:30:22;2.40;;;2.20;;
6145;SDS011;3104;50.348;7.620;2023-04-22T11:32:50;2.43;;;2.23;;
6145;SDS011;3104;50.348;7.620;2023-04-22T11:35:23;2.53;;;2.43;;
6145;SDS011;3104;50.348;7.620;2023-04-22T11:37:56;2.97;;;2.13;;
6145;SDS011;3104;50.348;7.620;2023-04-22T11:40:24;5.53;;;2.20;;
6145;SDS011;3104;50.348;7.620;2023-04-22T11:42:52;2.43;;;2.27;;
6145;SDS011;3104;50.348;7.620;2023-04-22T11:45:19;2.60;;;2.40;;
6145;SDS011;3104;50.348;7.620;2023-04-22T11:47:45;3.30;;;3.10;;
6145;SDS011;3104;50.348;7.620;2023-04-22T11:50:11;3.60;;;2.23;;
6145;SDS011;3104;50.348;7.620;2023-04-22T12:00:58;3.97;;;2.50;;
6145;SDS011;3104;50.348;7.620;2023-04-22T12:03:25;4.17;;;2.47;;
6145;SDS011;3104;50.348;7.620;2023-04-22T12:05:53;2.37;;;2.17;;
6145;SDS011;3104;50.348;7.620;2023-04-22T12:08:33;2.97;;;2.30;;
6145;SDS011;3104;50.348;7.620;2023-04-22T12:11:07;5.93;;;3.13;;
6145;SDS011;3104;50.348;7.620;2023-04-22T12:16:08;3.03;;;2.47;;
6145;SDS011;3104;50.348;7.620;2023-04-22T12:18:38;4.60;;;2.60;;
6145;SDS011;3104;50.348;7.620;2023-04-22T12:21:24;2.43;;;2.27;;
6145;SDS011;3104;50.348;7.620;2023-04-22T12:23:56;2.43;;;2.23;;
6145;SDS011;3104;50.348;7.620;2023-04-22T12:26:29;2.70;;;2.30;;
6145;SDS011;3104;50.348;7.620;2023-04-22T12:28:56;2.50;;;2.30;;
6145;SDS011;3104;50.348;7.620;2023-04-22T12:31:22;2.60;;;2.40;;
6145;SDS011;3104;50.348;7.620;2023-04-22T12:33:48;5.03;;;2.60;;
6145;SDS011;3104;50.348;7.620;2023-04-22T12:36:14;3.23;;;2.93;;
6145;SDS011;3104;50.348;7.620;2023-04-22T12:38:40;2.77;;;2.57;;
6145;SDS011;3104;50.348;7.620;2023-04-22T12:41:06;3.20;;;3.00;;
6145;SDS011;3104;50.348;7.620;2023-04-22T12:43:32;3.50;;;2.40;;
6145;SDS011;3104;50.348;7.620;2023-04-22T12:46:09;2.63;;;2.47;;
6145;SDS011;3104;50.348;7.620;2023-04-22T12:48:35;2.97;;;2.77;;
6145;SDS011;3104;50.348;7.620;2023-04-22T12:51:01;4.23;;;2.63;;
6145;SDS011;3104;50.348;7.620;2023-04-22T12:53:27;3.00;;;2.80;;
6145;SDS011;3104;50.348;7.620;2023-04-22T12:55:53;2.23;;;2.13;;
6145;SDS011;3104;50.348;7.620;2023-04-22T12:58:19;2.50;;;2.40;;
6145;SDS011;3104;50.348;7.620;2023-04-22T13:00:45;2.70;;;2.50;;
6145;SDS011;3104;50.348;7.620;2023-04-22T13:03:10;2.80;;;2.60;;
6145;SDS011;3104;50.348;7.620;2023-04-22T13:05:36;5.10;;;2.90;;
6145;SDS011;3104;50.348;7.620;2023-04-22T13:08:03;3.27;;;2.63;;
6145;SDS011;3104;50.348;7.620;2023-04-22T13:10:29;3.70;;;2.90;;
6145;SDS011;3104;50.348;7.620;2023-04-22T13:12:55;3.37;;;3.07;;
6145;SDS011;3104;50.348;7.620;2023-04-22T13:15:21;3.13;;;2.93;;
6145;SDS011;3104;50.348;7.620;2023-04-22T13:17:47;2.90;;;2.70;;
6145;SDS011;3104;50.348;7.620;2023-04-22T13:20:13;8.47;;;7.73;;
6145;SDS011;3104;50.348;7.620;2023-04-22T13:22:40;3.20;;;2.73;;
6145;SDS011;3104;50.348;7.620;2023-04-22T13:25:06;2.40;;;2.17;;
6145;SDS011;3104;50.348;7.620;2023-04-22T13:27:32;2.47;;;2.27;;
6145;SDS011;3104;50.348;7.620;2023-04-22T13:29:58;2.73;;;2.53;;
6145;SDS011;3104;50.348;7.620;2023-04-22T13:32:24;3.00;;;2.30;;
6145;SDS011;3104;50.348;7.620;2023-04-22T13:34:49;2.43;;;2.20;;
6145;SDS011;3104;50.348;7.620;2023-04-22T13:37:15;2.63;;;2.43;;
6145;SDS011;3104;50.348;7.620;2023-04-22T13:39:43;2.70;;;2.23;;
6145;SDS011;3104;50.348;7.620;2023-04-22T13:42:09;3.63;;;2.13;;
6145;SDS011;3104;50.348;7.620;2023-04-22T13:44:34;2.33;;;2.13;;
6145;SDS011;3104;50.348;7.620;2023-04-22T13:47:00;2.80;;;2.60;;
6145;SDS011;3104;50.348;7.620;2023-04-22T13:49:26;2.70;;;2.60;;
6145;SDS011;3104;50.348;7.620;2023-04-22T13:51:52;2.63;;;2.43;;
6145;SDS011;3104;50.348;7.620;2023-04-22T13:54:18;2.20;;;2.10;;
6145;SDS011;3104;50.348;7.620;2023-04-22T13:56:43;2.30;;;1.83;;
6145;SDS011;3104;50.348;7.620;2023-04-22T13:59:09;4.23;;;2.00;;
6145;SDS011;3104;50.348;7.620;2023-04-22T14:01:34;3.00;;;2.60;;
6145;SDS011;3104;50.348;7.620;2023-04-22T14:04:01;2.30;;;2.10;;
6145;SDS011;3104;50.348;7.620;2023-04-22T14:06:27;4.53;;;2.37;;
6145;SDS011;3104;50.348;7.620;2023-04-22T14:08:53;2.37;;;2.17;;
6145;SDS011;3104;50.348;7.620;2023-04-22T14:11:18;2.73;;;1.83;;
6145;SDS011;3104;50.348;7.620;2023-04-22T14:13:44;2.60;;;2.40;;
6145;SDS011;3104;50.348;7.620;2023-04-22T14:16:10;2.23;;;1.93;;
6145;SDS011;3104;50.348;7.620;2023-04-22T14:18:37;2.27;;;2.07;;
6145;SDS011;3104;50.348;7.620;2023-04-22T14:21:04;2.60;;;2.37;;
6145;SDS011;3104;50.348;7.620;2023-04-22T14:23:31;2.00;;;1.80;;
6145;SDS011;3104;50.348;7.620;2023-04-22T14:25:57;3.27;;;2.30;;
6145;SDS011;3104;50.348;7.620;2023-04-22T14:28:23;4.23;;;2.60;;
6145;SDS011;3104;50.348;7.620;2023-04-22T14:30:49;3.40;;;2.50;;
6145;SDS011;3104;50.348;7.620;2023-04-22T14:33:15;3.97;;;2.47;;
6145;SDS011;3104;50.348;7.620;2023-04-22T14:35:41;2.80;;;2.10;;
6145;SDS011;3104;50.348;7.620;2023-04-22T14:38:07;3.00;;;1.90;;
6145;SDS011;3104;50.348;7.620;2023-04-22T14:40:34;2.50;;;2.27;;
6145;SDS011;3104;50.348;7.620;2023-04-22T14:43:01;2.10;;;1.90;;
6145;SDS011;3104;50.348;7.620;2023-04-22T14:45:29;2.70;;;2.40;;
6145;SDS011;3104;50.348;7.620;2023-04-22T14:47:56;2.53;;;2.33;;
6145;SDS011;3104;50.348;7.620;2023-04-22T14:50:22;2.73;;;2.53;;
6145;SDS011;3104;50.348;7.620;2023-04-22T14:52:49;2.70;;;2.50;;
6145;SDS011;3104;50.348;7.620;2023-04-22T14:55:15;2.30;;;2.20;;
6145;SDS011;3104;50.348;7.620;2023-04-22T14:57:41;2.73;;;2.53;;
6145;SDS011;3104;50.348;7.620;2023-04-22T15:00:07;2.50;;;2.30;;
6145;SDS011;3104;50.348;7.620;2023-04-22T15:02:33;2.27;;;2.13;;
6145;SDS011;3104;50.348;7.620;2023-04-22T15:04:59;2.20;;;2.10;;
6145;SDS011;3104;50.348;7.620;2023-04-22T15:07:25;5.27;;;2.07;;
6145;SDS011;3104;50.348;7.620;2023-04-22T15:09:50;2.23;;;2.07;;
6145;SDS011;3104;50.348;7.620;2023-04-22T15:12:16;2.37;;;2.17;;
6145;SDS011;3104;50.348;7.620;2023-04-22T15:14:42;2.43;;;2.20;;
6145;SDS011;3104;50.348;7.620;2023-04-22T15:17:08;2.27;;;1.87;;
6145;SDS011;3104;50.348;7.620;2023-04-22T15:19:34;2.30;;;2.10;;
6145;SDS011;3104;50.348;7.620;2023-04-22T15:22:00;2.00;;;1.90;;
6145;SDS011;3104;50.348;7.620;2023-04-22T15:24:26;3.10;;;2.13;;
6145;SDS011;3104;50.348;7.620;2023-04-22T15:26:52;2.53;;;2.37;;
6145;SDS011;3104;50.348;7.620;2023-04-22T15:29:18;2.03;;;1.93;;